sensor_id;sensor_type;location;lat;lon;timestamp;temperature;humidity
2409;DHT22;8463;48.094;7.970;2023-11-22T00:00:28;8.50;1.00
2409;DHT22;8463;48.094;7.970;2023-11-22T00:02:54;8.50;1.00
2409;DHT22;8463;48.094;7.970;2023-11-22T00:05:19;8.50;1.00
2409;DHT22;8463;48.094;7.970;2023-11-22T00:07:47;8.60;1.00
2409;DHT22;8463;48.094;7.970;2023-11-22T00:10:15;8.50;1.00
2409;DHT22;8463;48.094;7.970;2023-11-22T00:12:41;8.60;1.00
2409;DHT22;8463;48.094;7.970;2023-11-22T00:15:08;8.60;1.00
2409;DHT22;8463;48.094;7.970;2023-11-22T00:17:37;8.60;1.00
2409;DHT22;8463;48.094;7.970;2023-11-22T00:20:03;8.60;1.00
2409;DHT22;8463;48.094;7.970;2023-11-22T00:22:34;8.50;1.00
2409;DHT22;8463;48.094;7.970;2023-11-22T00:25:04;8.50;1.00
2409;DHT22;8463;48.094;7.970;2023-11-22T00:27:30;8.60;1.00
2409;DHT22;8463;48.094;7.970;2023-11-22T00:29:57;8.60;1.00
2409;DHT22;8463;48.094;7.970;2023-11-22T00:32:23;8.50;1.00
2409;DHT22;8463;48.094;7.970;2023-11-22T00:34:49;8.50;1.00
2409;DHT22;8463;48.094;7.970;2023-11-22T00:37:18;8.50;1.00
2409;DHT22;8463;48.094;7.970;2023-11-22T00:42:10;8.40;1.00
2409;DHT22;8463;48.094;7.970;2023-11-22T00:44:36;8.50;1.00
2409;DHT22;8463;48.094;7.970;2023-11-22T00:47:02;8.50;1.00
2409;DHT22;8463;48.094;7.970;2023-11-22T00:51:53;8.50;1.00
2409;DHT22;8463;48.094;7.970;2023-11-22T00:54:19;8.50;1.00
2409;DHT22;8463;48.094;7.970;2023-11-22T00:59:14;8.40;1.00
2409;DHT22;8463;48.094;7.970;2023-11-22T01:01:41;8.40;1.00
2409;DHT22;8463;48.094;7.970;2023-11-22T01:04:07;8.40;1.00
2409;DHT22;8463;48.094;7.970;2023-11-22T01:06:33;8.40;1.00
2409;DHT22;8463;48.094;7.970;2023-11-22T01:09:00;8.50;1.00
2409;DHT22;8463;48.094;7.970;2023-11-22T01:13:52;8.40;1.00
2409;DHT22;8463;48.094;7.970;2023-11-22T01:16:17;8.40;1.00
2409;DHT22;8463;48.094;7.970;2023-11-22T01:18:43;8.40;1.00
2409;DHT22;8463;48.094;7.970;2023-11-22T01:23:37;8.40;1.00
2409;DHT22;8463;48.094;7.970;2023-11-22T01:31:00;8.50;1.00
2409;DHT22;8463;48.094;7.970;2023-11-22T01:33:26;8.50;1.00
2409;DHT22;8463;48.094;7.970;2023-11-22T01:35:52;8.50;1.00
2409;DHT22;8463;48.094;7.970;2023-11-22T01:38:18;8.50;1.00
2409;DHT22;8463;48.094;7.970;2023-11-22T01:40:47;8.50;1.00
2409;DHT22;8463;48.094;7.970;2023-11-22T01:43:17;8.50;1.00
2409;DHT22;8463;48.094;7.970;2023-11-22T01:45:43;8.50;1.00
2409;DHT22;8463;48.094;7.970;2023-11-22T01:48:10;8.50;1.00
2409;DHT22;8463;48.094;7.970;2023-11-22T01:50:40;8.50;1.00
2409;DHT22;8463;48.094;7.970;2023-11-22T01:53:09;8.50;1.00
2409;DHT22;8463;48.094;7.970;2023-11-22T01:55:36;8.50;1.00
2409;DHT22;8463;48.094;7.970;2023-11-22T01:58:02;8.50;1.00
2409;DHT22;8463;48.094;7.970;2023-11-22T02:00:35;8.50;1.00
2409;DHT22;8463;48.094;7.970;2023-11-22T02:03:03;8.50;1.00
2409;DHT22;8463;48.094;7.970;2023-11-22T02:05:31;8.60;1.00
2409;DHT22;8463;48.094;7.970;2023-11-22T02:12:51;8.30;1.00
2409;DHT22;8463;48.094;7.970;2023-11-22T02:15:16;8.20;1.00
2409;DHT22;8463;48.094;7.970;2023-11-22T02:17:42;8.30;1.00
2409;DHT22;8463;48.094;7.970;2023-11-22T02:20:09;8.30;1.00
2409;DHT22;8463;48.094;7.970;2023-11-22T02:22:43;8.30;1.00
2409;DHT22;8463;48.094;7.970;2023-11-22T02:25:09;8.40;1.00
2409;DHT22;8463;48.094;7.970;2023-11-22T02:27:37;8.40;1.00
2409;DHT22;8463;48.094;7.970;2023-11-22T02:30:03;8.40;1.00
2409;DHT22;8463;48.094;7.970;2023-11-22T02:32:31;8.40;1.00
2409;DHT22;8463;48.094;7.970;2023-11-22T02:34:57;8.40;1.00
2409;DHT22;8463;48.094;7.970;2023-11-22T02:37:22;8.50;1.00
2409;DHT22;8463;48.094;7.970;2023-11-22T02:40:18;8.50;1.00
2409;DHT22;8463;48.094;7.970;2023-11-22T02:42:48;8.40;1.00
2409;DHT22;8463;48.094;7.970;2023-11-22T02:45:16;8.40;1.00
2409;DHT22;8463;48.094;7.970;2023-11-22T02:50:18;8.50;1.00
2409;DHT22;8463;48.094;7.970;2023-11-22T02:52:43;8.50;1.00
2409;DHT22;8463;48.094;7.970;2023-11-22T02:55:09;8.50;1.00
2409;DHT22;8463;48.094;7.970;2023-11-22T02:57:36;8.50;1.00
2409;DHT22;8463;48.094;7.970;2023-11-22T03:00:03;8.40;1.00
2409;DHT22;8463;48.094;7.970;2023-11-22T03:02:29;8.50;1.00
2409;DHT22;8463;48.094;7.970;2023-11-22T03:04:55;8.50;1.00
2409;DHT22;8463;48.094;7.970;2023-11-22T03:09:47;8.40;1.00
2409;DHT22;8463;48.094;7.970;2023-11-22T03:12:13;8.50;1.00
2409;DHT22;8463;48.094;7.970;2023-11-22T03:14:39;8.40;1.00
2409;DHT22;8463;48.094;7.970;2023-11-22T03:17:05;8.30;1.00
2409;DHT22;8463;48.094;7.970;2023-11-22T03:19:31;8.30;1.00
2409;DHT22;8463;48.094;7.970;2023-11-22T03:21:59;8.40;1.00
2409;DHT22;8463;48.094;7.970;2023-11-22T03:24:25;8.40;1.00
2409;DHT22;8463;48.094;7.970;2023-11-22T03:26:51;8.30;1.00
2409;DHT22;8463;48.094;7.970;2023-11-22T03:29:18;8.40;1.00
2409;DHT22;8463;48.094;7.970;2023-11-22T03:31:44;8.40;1.00
2409;DHT22;8463;48.094;7.970;2023-11-22T03:34:13;8.40;1.00
2409;DHT22;8463;48.094;7.970;2023-11-22T03:36:40;8.40;1.00
2409;DHT22;8463;48.094;7.970;2023-11-22T03:39:06;8.40;1.00
2409;DHT22;8463;48.094;7.970;2023-11-22T03:41:31;8.40;1.00
2409;DHT22;8463;48.094;7.970;2023-11-22T03:43:57;8.40;1.00
2409;DHT22;8463;48.094;7.970;2023-11-22T03:48:48;8.40;1.00
2409;DHT22;8463;48.094;7.970;2023-11-22T03:51:14;8.40;1.00
2409;DHT22;8463;48.094;7.970;2023-11-22T03:53:39;8.20;1.00
2409;DHT22;8463;48.094;7.970;2023-11-22T03:56:05;8.20;1.00
2409;DHT22;8463;48.094;7.970;2023-11-22T03:58:31;8.20;1.00
2409;DHT22;8463;48.094;7.970;2023-11-22T04:00:56;8.20;1.00
2409;DHT22;8463;48.094;7.970;2023-11-22T04:03:24;8.20;1.00
2409;DHT22;8463;48.094;7.970;2023-11-22T04:05:49;8.20;1.00
2409;DHT22;8463;48.094;7.970;2023-11-22T04:08:15;8.20;1.00
2409;DHT22;8463;48.094;7.970;2023-11-22T04:10:40;8.20;1.00
2409;DHT22;8463;48.094;7.970;2023-11-22T04:13:06;8.20;1.00
2409;DHT22;8463;48.094;7.970;2023-11-22T04:15:32;8.10;1.00
2409;DHT22;8463;48.094;7.970;2023-11-22T04:17:57;8.00;1.00
2409;DHT22;8463;48.094;7.970;2023-11-22T04:20:25;7.90;1.00
2409;DHT22;8463;48.094;7.970;2023-11-22T04:22:51;7.80;1.00
2409;DHT22;8463;48.094;7.970;2023-11-22T04:25:16;7.70;1.00
2409;DHT22;8463;48.094;7.970;2023-11-22T04:30:09;7.70;1.00
2409;DHT22;8463;48.094;7.970;2023-11-22T04:32:40;7.70;1.00
2409;DHT22;8463;48.094;7.970;2023-11-22T04:35:06;7.70;1.00
2409;DHT22;8463;48.094;7.970;2023-11-22T04:37:32;7.80;1.00
2409;DHT22;8463;48.094;7.970;2023-11-22T04:40:01;7.80;1.00
2409;DHT22;8463;48.094;7.970;2023-11-22T04:44:56;7.90;1.00
2409;DHT22;8463;48.094;7.970;2023-11-22T04:47:21;7.80;1.00
2409;DHT22;8463;48.094;7.970;2023-11-22T04:49:48;7.70;1.00
2409;DHT22;8463;48.094;7.970;2023-11-22T04:52:14;7.80;1.00
2409;DHT22;8463;48.094;7.970;2023-11-22T04:54:40;7.70;1.00
2409;DHT22;8463;48.094;7.970;2023-11-22T04:59:32;7.60;1.00
2409;DHT22;8463;48.094;7.970;2023-11-22T05:02:00;7.50;1.00
2409;DHT22;8463;48.094;7.970;2023-11-22T05:06:53;7.40;1.00
2409;DHT22;8463;48.094;7.970;2023-11-22T05:09:19;7.40;1.00
2409;DHT22;8463;48.094;7.970;2023-11-22T05:11:45;7.40;1.00
2409;DHT22;8463;48.094;7.970;2023-11-22T05:14:11;7.50;1.00
2409;DHT22;8463;48.094;7.970;2023-11-22T05:16:38;7.50;1.00
2409;DHT22;8463;48.094;7.970;2023-11-22T05:19:04;7.50;1.00
2409;DHT22;8463;48.094;7.970;2023-11-22T05:21:29;7.50;1.00
2409;DHT22;8463;48.094;7.970;2023-11-22T05:26:21;7.40;1.00
2409;DHT22;8463;48.094;7.970;2023-11-22T05:28:47;7.30;1.00
2409;DHT22;8463;48.094;7.970;2023-11-22T05:31:13;7.30;1.00
2409;DHT22;8463;48.094;7.970;2023-11-22T05:33:40;7.30;1.00
2409;DHT22;8463;48.094;7.970;2023-11-22T05:36:06;7.30;1.00
2409;DHT22;8463;48.094;7.970;2023-11-22T05:38:32;7.30;1.00
2409;DHT22;8463;48.094;7.970;2023-11-22T05:41:01;7.30;1.00
2409;DHT22;8463;48.094;7.970;2023-11-22T05:45:53;7.20;1.00
2409;DHT22;8463;48.094;7.970;2023-11-22T05:48:19;7.10;1.00
2409;DHT22;8463;48.094;7.970;2023-11-22T05:50:46;7.10;1.00
2409;DHT22;8463;48.094;7.970;2023-11-22T05:53:12;7.10;1.00
2409;DHT22;8463;48.094;7.970;2023-11-22T05:55:38;7.10;1.00
2409;DHT22;8463;48.094;7.970;2023-11-22T05:58:04;7.10;1.00
2409;DHT22;8463;48.094;7.970;2023-11-22T06:00:32;7.10;1.00
2409;DHT22;8463;48.094;7.970;2023-11-22T06:05:24;7.10;1.00
2409;DHT22;8463;48.094;7.970;2023-11-22T06:10:17;7.00;1.00
2409;DHT22;8463;48.094;7.970;2023-11-22T06:12:42;7.00;1.00
2409;DHT22;8463;48.094;7.970;2023-11-22T06:15:09;7.00;1.00
2409;DHT22;8463;48.094;7.970;2023-11-22T06:17:35;6.90;1.00
2409;DHT22;8463;48.094;7.970;2023-11-22T06:20:00;6.90;1.00
2409;DHT22;8463;48.094;7.970;2023-11-22T06:22:26;6.80;1.00
2409;DHT22;8463;48.094;7.970;2023-11-22T06:27:20;6.80;1.00
2409;DHT22;8463;48.094;7.970;2023-11-22T06:29:46;7.10;1.00
2409;DHT22;8463;48.094;7.970;2023-11-22T06:32:12;7.90;1.00
2409;DHT22;8463;48.094;7.970;2023-11-22T06:34:38;7.60;1.00
2409;DHT22;8463;48.094;7.970;2023-11-22T06:37:03;7.00;1.00
2409;DHT22;8463;48.094;7.970;2023-11-22T06:41:56;6.90;1.00
2409;DHT22;8463;48.094;7.970;2023-11-22T06:46:48;6.70;1.00
2409;DHT22;8463;48.094;7.970;2023-11-22T06:49:14;6.60;1.00
2409;DHT22;8463;48.094;7.970;2023-11-22T06:54:06;6.40;1.00
2409;DHT22;8463;48.094;7.970;2023-11-22T06:56:32;6.40;1.00
2409;DHT22;8463;48.094;7.970;2023-11-22T06:58:58;6.40;1.00
2409;DHT22;8463;48.094;7.970;2023-11-22T07:01:24;6.30;1.00
2409;DHT22;8463;48.094;7.970;2023-11-22T07:03:51;6.30;1.00
2409;DHT22;8463;48.094;7.970;2023-11-22T07:06:18;6.30;1.00
2409;DHT22;8463;48.094;7.970;2023-11-22T07:08:46;6.20;1.00
2409;DHT22;8463;48.094;7.970;2023-11-22T07:11:12;6.20;1.00
2409;DHT22;8463;48.094;7.970;2023-11-22T07:13:39;6.10;1.00
2409;DHT22;8463;48.094;7.970;2023-11-22T07:16:06;6.10;1.00
2409;DHT22;8463;48.094;7.970;2023-11-22T07:18:32;6.20;1.00
2409;DHT22;8463;48.094;7.970;2023-11-22T07:20:59;6.10;1.00
2409;DHT22;8463;48.094;7.970;2023-11-22T07:23:25;6.20;1.00
2409;DHT22;8463;48.094;7.970;2023-11-22T07:25:54;6.20;1.00
2409;DHT22;8463;48.094;7.970;2023-11-22T07:28:20;6.20;1.00
2409;DHT22;8463;48.094;7.970;2023-11-22T07:30:46;6.20;1.00
2409;DHT22;8463;48.094;7.970;2023-11-22T07:33:16;6.20;1.00
2409;DHT22;8463;48.094;7.970;2023-11-22T07:35:42;6.20;1.00
2409;DHT22;8463;48.094;7.970;2023-11-22T07:38:10;6.20;1.00
2409;DHT22;8463;48.094;7.970;2023-11-22T07:40:36;6.20;1.00
2409;DHT22;8463;48.094;7.970;2023-11-22T07:43:02;6.20;1.00
2409;DHT22;8463;48.094;7.970;2023-11-22T07:45:33;6.20;1.00
2409;DHT22;8463;48.094;7.970;2023-11-22T07:47:59;6.20;1.00
2409;DHT22;8463;48.094;7.970;2023-11-22T07:50:28;8.00;1.00
2409;DHT22;8463;48.094;7.970;2023-11-22T07:52:55;6.10;1.00
2409;DHT22;8463;48.094;7.970;2023-11-22T07:55:21;6.10;1.00
2409;DHT22;8463;48.094;7.970;2023-11-22T07:57:48;6.10;1.00
2409;DHT22;8463;48.094;7.970;2023-11-22T08:00:17;6.10;1.00
2409;DHT22;8463;48.094;7.970;2023-11-22T08:02:45;5.90;1.00
2409;DHT22;8463;48.094;7.970;2023-11-22T08:05:11;5.90;1.00
2409;DHT22;8463;48.094;7.970;2023-11-22T08:07:38;6.00;1.00
2409;DHT22;8463;48.094;7.970;2023-11-22T08:10:07;5.90;1.00
2409;DHT22;8463;48.094;7.970;2023-11-22T08:12:43;6.00;1.00
2409;DHT22;8463;48.094;7.970;2023-11-22T08:15:13;5.90;1.00
2409;DHT22;8463;48.094;7.970;2023-11-22T08:17:39;5.90;1.00
2409;DHT22;8463;48.094;7.970;2023-11-22T08:20:07;5.90;1.00
2409;DHT22;8463;48.094;7.970;2023-11-22T08:22:42;5.90;1.00
2409;DHT22;8463;48.094;7.970;2023-11-22T08:25:08;5.80;1.00
2409;DHT22;8463;48.094;7.970;2023-11-22T08:27:40;5.70;1.00
2409;DHT22;8463;48.094;7.970;2023-11-22T08:30:09;5.80;1.00
2409;DHT22;8463;48.094;7.970;2023-11-22T08:32:40;5.80;1.00
2409;DHT22;8463;48.094;7.970;2023-11-22T08:35:07;5.70;1.00
2409;DHT22;8463;48.094;7.970;2023-11-22T08:37:34;5.70;1.00
2409;DHT22;8463;48.094;7.970;2023-11-22T08:40:02;5.80;1.00
2409;DHT22;8463;48.094;7.970;2023-11-22T08:42:28;5.80;1.00
2409;DHT22;8463;48.094;7.970;2023-11-22T08:44:53;5.80;1.00
2409;DHT22;8463;48.094;7.970;2023-11-22T08:47:19;5.80;1.00
2409;DHT22;8463;48.094;7.970;2023-11-22T08:49:44;5.80;1.00
2409;DHT22;8463;48.094;7.970;2023-11-22T08:52:10;5.70;1.00
2409;DHT22;8463;48.094;7.970;2023-11-22T08:54:37;5.80;1.00
2409;DHT22;8463;48.094;7.970;2023-11-22T08:57:03;5.90;1.00
2409;DHT22;8463;48.094;7.970;2023-11-22T08:59:28;5.70;1.00
2409;DHT22;8463;48.094;7.970;2023-11-22T09:01:54;5.70;1.00
2409;DHT22;8463;48.094;7.970;2023-11-22T09:04:20;5.60;1.00
2409;DHT22;8463;48.094;7.970;2023-11-22T09:06:45;5.70;1.00
2409;DHT22;8463;48.094;7.970;2023-11-22T09:09:13;6.50;1.00
2409;DHT22;8463;48.094;7.970;2023-11-22T09:11:41;5.60;1.00
2409;DHT22;8463;48.094;7.970;2023-11-22T09:14:06;5.50;1.00
2409;DHT22;8463;48.094;7.970;2023-11-22T09:16:38;5.50;1.00
2409;DHT22;8463;48.094;7.970;2023-11-22T09:19:05;5.50;1.00
2409;DHT22;8463;48.094;7.970;2023-11-22T09:21:33;5.50;1.00
2409;DHT22;8463;48.094;7.970;2023-11-22T09:24:00;5.40;1.00
2409;DHT22;8463;48.094;7.970;2023-11-22T09:26:26;5.50;1.00
2409;DHT22;8463;48.094;7.970;2023-11-22T09:28:52;5.50;1.00
2409;DHT22;8463;48.094;7.970;2023-11-22T09:31:19;5.50;1.00
2409;DHT22;8463;48.094;7.970;2023-11-22T09:33:46;5.60;1.00
2409;DHT22;8463;48.094;7.970;2023-11-22T09:36:15;5.70;1.00
2409;DHT22;8463;48.094;7.970;2023-11-22T09:38:41;5.60;1.00
2409;DHT22;8463;48.094;7.970;2023-11-22T09:41:07;5.70;1.00
2409;DHT22;8463;48.094;7.970;2023-11-22T09:43:34;5.50;1.00
2409;DHT22;8463;48.094;7.970;2023-11-22T09:45:59;5.60;1.00
2409;DHT22;8463;48.094;7.970;2023-11-22T09:48:26;5.60;1.00
2409;DHT22;8463;48.094;7.970;2023-11-22T09:56:10;5.70;1.00
2409;DHT22;8463;48.094;7.970;2023-11-22T09:58:41;5.70;1.00
2409;DHT22;8463;48.094;7.970;2023-11-22T10:01:13;5.90;1.00
2409;DHT22;8463;48.094;7.970;2023-11-22T10:03:39;5.80;1.00
2409;DHT22;8463;48.094;7.970;2023-11-22T10:06:05;5.80;1.00
2409;DHT22;8463;48.094;7.970;2023-11-22T10:08:32;5.80;1.00
2409;DHT22;8463;48.094;7.970;2023-11-22T10:10:58;5.90;1.00
2409;DHT22;8463;48.094;7.970;2023-11-22T10:13:25;5.90;1.00
2409;DHT22;8463;48.094;7.970;2023-11-22T10:15:52;5.90;1.00
2409;DHT22;8463;48.094;7.970;2023-11-22T10:18:21;5.80;1.00
2409;DHT22;8463;48.094;7.970;2023-11-22T10:20:50;5.80;1.00
2409;DHT22;8463;48.094;7.970;2023-11-22T10:23:17;5.80;1.00
2409;DHT22;8463;48.094;7.970;2023-11-22T10:25:52;5.80;1.00
2409;DHT22;8463;48.094;7.970;2023-11-22T10:28:22;5.80;1.00
2409;DHT22;8463;48.094;7.970;2023-11-22T10:30:50;5.80;1.00
2409;DHT22;8463;48.094;7.970;2023-11-22T10:33:17;5.80;1.00
2409;DHT22;8463;48.094;7.970;2023-11-22T10:35:47;5.90;1.00
2409;DHT22;8463;48.094;7.970;2023-11-22T10:38:20;5.90;1.00
2409;DHT22;8463;48.094;7.970;2023-11-22T10:40:46;5.80;1.00
2409;DHT22;8463;48.094;7.970;2023-11-22T10:43:14;5.80;1.00
2409;DHT22;8463;48.094;7.970;2023-11-22T10:45:43;5.70;1.00
2409;DHT22;8463;48.094;7.970;2023-11-22T10:48:14;5.60;1.00
2409;DHT22;8463;48.094;7.970;2023-11-22T10:50:42;5.70;1.00
2409;DHT22;8463;48.094;7.970;2023-11-22T10:53:12;5.60;1.00
2409;DHT22;8463;48.094;7.970;2023-11-22T10:55:51;5.70;1.00
2409;DHT22;8463;48.094;7.970;2023-11-22T10:58:19;5.70;1.00
2409;DHT22;8463;48.094;7.970;2023-11-22T11:00:46;5.70;1.00
2409;DHT22;8463;48.094;7.970;2023-11-22T11:03:14;5.70;1.00
2409;DHT22;8463;48.094;7.970;2023-11-22T11:05:47;5.60;1.00
2409;DHT22;8463;48.094;7.970;2023-11-22T11:08:17;5.70;1.00
2409;DHT22;8463;48.094;7.970;2023-11-22T11:10:45;5.70;1.00
2409;DHT22;8463;48.094;7.970;2023-11-22T11:13:12;5.70;1.00
2409;DHT22;8463;48.094;7.970;2023-11-22T11:15:42;5.70;1.00
2409;DHT22;8463;48.094;7.970;2023-11-22T11:18:14;5.80;1.00
2409;DHT22;8463;48.094;7.970;2023-11-22T11:20:50;5.80;1.00
2409;DHT22;8463;48.094;7.970;2023-11-22T11:23:20;5.80;1.00
2409;DHT22;8463;48.094;7.970;2023-11-22T11:25:56;5.80;1.00
2409;DHT22;8463;48.094;7.970;2023-11-22T11:28:23;5.80;1.00
2409;DHT22;8463;48.094;7.970;2023-11-22T11:30:56;5.70;1.00
2409;DHT22;8463;48.094;7.970;2023-11-22T11:33:36;5.60;1.00
2409;DHT22;8463;48.094;7.970;2023-11-22T11:36:29;5.60;1.00
2409;DHT22;8463;48.094;7.970;2023-11-22T11:38:58;5.60;1.00
2409;DHT22;8463;48.094;7.970;2023-11-22T11:41:32;5.50;1.00
2409;DHT22;8463;48.094;7.970;2023-11-22T11:43:58;5.60;1.00
2409;DHT22;8463;48.094;7.970;2023-11-22T11:46:26;5.50;1.00
2409;DHT22;8463;48.094;7.970;2023-11-22T11:48:54;5.50;1.00
2409;DHT22;8463;48.094;7.970;2023-11-22T11:51:23;5.40;1.00
2409;DHT22;8463;48.094;7.970;2023-11-22T11:53:49;5.40;1.00
2409;DHT22;8463;48.094;7.970;2023-11-22T11:56:15;5.40;1.00
2409;DHT22;8463;48.094;7.970;2023-11-22T11:58:45;5.40;1.00
2409;DHT22;8463;48.094;7.970;2023-11-22T12:01:16;5.40;1.00
2409;DHT22;8463;48.094;7.970;2023-11-22T12:03:44;5.40;1.00
2409;DHT22;8463;48.094;7.970;2023-11-22T12:06:17;5.30;1.00
2409;DHT22;8463;48.094;7.970;2023-11-22T12:08:46;5.30;1.00
2409;DHT22;8463;48.094;7.970;2023-11-22T12:11:13;5.30;1.00
2409;DHT22;8463;48.094;7.970;2023-11-22T12:13:38;5.30;1.00
2409;DHT22;8463;48.094;7.970;2023-11-22T12:16:05;5.30;1.00
2409;DHT22;8463;48.094;7.970;2023-11-22T12:21:05;5.30;1.00
2409;DHT22;8463;48.094;7.970;2023-11-22T12:23:32;5.40;1.00
2409;DHT22;8463;48.094;7.970;2023-11-22T12:25:58;5.40;1.00
2409;DHT22;8463;48.094;7.970;2023-11-22T12:28:27;5.40;1.00
2409;DHT22;8463;48.094;7.970;2023-11-22T12:30:53;5.50;1.00
2409;DHT22;8463;48.094;7.970;2023-11-22T12:33:20;5.50;1.00
2409;DHT22;8463;48.094;7.970;2023-11-22T12:35:46;5.50;1.00
2409;DHT22;8463;48.094;7.970;2023-11-22T12:38:12;5.50;1.00
2409;DHT22;8463;48.094;7.970;2023-11-22T12:40:43;5.50;1.00
2409;DHT22;8463;48.094;7.970;2023-11-22T12:43:08;5.40;1.00
2409;DHT22;8463;48.094;7.970;2023-11-22T12:45:34;5.40;1.00
2409;DHT22;8463;48.094;7.970;2023-11-22T12:48:23;5.40;1.00
2409;DHT22;8463;48.094;7.970;2023-11-22T12:50:51;5.50;1.00
2409;DHT22;8463;48.094;7.970;2023-11-22T12:53:17;5.40;1.00
2409;DHT22;8463;48.094;7.970;2023-11-22T12:58:12;5.40;1.00
2409;DHT22;8463;48.094;7.970;2023-11-22T13:00:39;5.30;1.00
2409;DHT22;8463;48.094;7.970;2023-11-22T13:03:08;5.30;1.00
2409;DHT22;8463;48.094;7.970;2023-11-22T13:05:36;5.30;1.00
2409;DHT22;8463;48.094;7.970;2023-11-22T13:08:05;5.20;1.00
2409;DHT22;8463;48.094;7.970;2023-11-22T13:10:30;5.20;1.00
2409;DHT22;8463;48.094;7.970;2023-11-22T13:12:57;5.40;1.00
2409;DHT22;8463;48.094;7.970;2023-11-22T13:15:23;5.40;1.00
2409;DHT22;8463;48.094;7.970;2023-11-22T13:17:54;5.40;1.00
2409;DHT22;8463;48.094;7.970;2023-11-22T13:20:22;5.40;1.00
2409;DHT22;8463;48.094;7.970;2023-11-22T13:22:50;5.30;1.00
2409;DHT22;8463;48.094;7.970;2023-11-22T13:25:16;5.30;1.00
2409;DHT22;8463;48.094;7.970;2023-11-22T13:27:49;6.30;1.00
2409;DHT22;8463;48.094;7.970;2023-11-22T13:30:15;5.20;1.00
2409;DHT22;8463;48.094;7.970;2023-11-22T13:32:43;5.30;1.00
2409;DHT22;8463;48.094;7.970;2023-11-22T13:35:09;5.30;1.00
2409;DHT22;8463;48.094;7.970;2023-11-22T13:37:43;5.30;1.00
2409;DHT22;8463;48.094;7.970;2023-11-22T13:40:11;5.30;1.00
2409;DHT22;8463;48.094;7.970;2023-11-22T13:42:45;5.40;1.00
2409;DHT22;8463;48.094;7.970;2023-11-22T13:45:12;5.40;1.00
2409;DHT22;8463;48.094;7.970;2023-11-22T13:47:49;5.40;1.00
2409;DHT22;8463;48.094;7.970;2023-11-22T13:50:17;5.40;1.00
2409;DHT22;8463;48.094;7.970;2023-11-22T13:52:50;5.50;1.00
2409;DHT22;8463;48.094;7.970;2023-11-22T13:55:17;5.50;1.00
2409;DHT22;8463;48.094;7.970;2023-11-22T13:57:49;5.50;1.00
2409;DHT22;8463;48.094;7.970;2023-11-22T14:00:21;5.50;1.00
2409;DHT22;8463;48.094;7.970;2023-11-22T14:02:54;5.40;1.00
2409;DHT22;8463;48.094;7.970;2023-11-22T14:05:32;5.40;1.00
2409;DHT22;8463;48.094;7.970;2023-11-22T14:07:57;5.40;1.00
2409;DHT22;8463;48.094;7.970;2023-11-22T14:10:24;5.30;1.00
2409;DHT22;8463;48.094;7.970;2023-11-22T14:12:50;5.40;1.00
2409;DHT22;8463;48.094;7.970;2023-11-22T14:15:16;5.40;1.00
2409;DHT22;8463;48.094;7.970;2023-11-22T14:17:42;5.40;1.00
2409;DHT22;8463;48.094;7.970;2023-11-22T14:20:09;5.40;1.00
2409;DHT22;8463;48.094;7.970;2023-11-22T14:22:35;5.40;1.00
2409;DHT22;8463;48.094;7.970;2023-11-22T14:25:01;5.40;1.00
2409;DHT22;8463;48.094;7.970;2023-11-22T14:27:28;5.30;1.00
2409;DHT22;8463;48.094;7.970;2023-11-22T14:32:21;5.50;1.00
2409;DHT22;8463;48.094;7.970;2023-11-22T14:34:47;5.50;1.00
2409;DHT22;8463;48.094;7.970;2023-11-22T14:37:13;5.40;1.00
2409;DHT22;8463;48.094;7.970;2023-11-22T14:39:39;5.40;1.00
2409;DHT22;8463;48.094;7.970;2023-11-22T14:42:05;5.30;1.00
2409;DHT22;8463;48.094;7.970;2023-11-22T14:44:32;5.40;1.00
2409;DHT22;8463;48.094;7.970;2023-11-22T14:46:58;5.40;1.00
2409;DHT22;8463;48.094;7.970;2023-11-22T14:49:24;5.40;1.00
2409;DHT22;8463;48.094;7.970;2023-11-22T14:51:51;5.50;1.00
2409;DHT22;8463;48.094;7.970;2023-11-22T14:54:16;5.50;1.00
2409;DHT22;8463;48.094;7.970;2023-11-22T14:56:42;5.40;1.00
2409;DHT22;8463;48.094;7.970;2023-11-22T14:59:08;5.30;1.00
2409;DHT22;8463;48.094;7.970;2023-11-22T15:01:34;5.30;1.00
2409;DHT22;8463;48.094;7.970;2023-11-22T15:04:00;5.20;1.00
2409;DHT22;8463;48.094;7.970;2023-11-22T15:06:25;5.20;1.00
2409;DHT22;8463;48.094;7.970;2023-11-22T15:08:51;5.20;1.00
2409;DHT22;8463;48.094;7.970;2023-11-22T15:11:18;5.00;1.00
2409;DHT22;8463;48.094;7.970;2023-11-22T15:13:44;5.00;1.00
2409;DHT22;8463;48.094;7.970;2023-11-22T15:16:10;5.10;1.00
2409;DHT22;8463;48.094;7.970;2023-11-22T15:18:46;5.00;1.00
2409;DHT22;8463;48.094;7.970;2023-11-22T15:21:12;5.10;1.00
2409;DHT22;8463;48.094;7.970;2023-11-22T15:23:39;5.10;1.00
2409;DHT22;8463;48.094;7.970;2023-11-22T15:26:04;5.00;1.00
2409;DHT22;8463;48.094;7.970;2023-11-22T15:28:31;5.00;1.00
2409;DHT22;8463;48.094;7.970;2023-11-22T15:30:57;5.40;1.00
2409;DHT22;8463;48.094;7.970;2023-11-22T15:33:25;5.10;1.00
2409;DHT22;8463;48.094;7.970;2023-11-22T15:35:50;4.90;1.00
2409;DHT22;8463;48.094;7.970;2023-11-22T15:38:16;4.50;1.00
2409;DHT22;8463;48.094;7.970;2023-11-22T15:40:42;4.40;1.00
2409;DHT22;8463;48.094;7.970;2023-11-22T15:43:08;4.30;1.00
2409;DHT22;8463;48.094;7.970;2023-11-22T15:45:34;4.10;1.00
2409;DHT22;8463;48.094;7.970;2023-11-22T15:48:01;4.00;1.00
2409;DHT22;8463;48.094;7.970;2023-11-22T15:50:27;3.90;1.00
2409;DHT22;8463;48.094;7.970;2023-11-22T15:52:54;3.90;1.00
2409;DHT22;8463;48.094;7.970;2023-11-22T15:55:20;3.80;1.00
2409;DHT22;8463;48.094;7.970;2023-11-22T15:57:51;3.90;1.00
2409;DHT22;8463;48.094;7.970;2023-11-22T16:00:16;4.10;1.00
2409;DHT22;8463;48.094;7.970;2023-11-22T16:02:42;4.00;1.00
2409;DHT22;8463;48.094;7.970;2023-11-22T16:05:08;4.00;1.00
2409;DHT22;8463;48.094;7.970;2023-11-22T16:07:33;4.00;1.00
2409;DHT22;8463;48.094;7.970;2023-11-22T16:10:01;3.90;1.00
2409;DHT22;8463;48.094;7.970;2023-11-22T16:12:33;3.90;1.00
2409;DHT22;8463;48.094;7.970;2023-11-22T16:15:02;4.00;1.00
2409;DHT22;8463;48.094;7.970;2023-11-22T16:17:28;3.90;1.00
2409;DHT22;8463;48.094;7.970;2023-11-22T16:19:54;3.90;1.00
2409;DHT22;8463;48.094;7.970;2023-11-22T16:22:21;4.00;1.00
2409;DHT22;8463;48.094;7.970;2023-11-22T16:24:49;4.10;1.00
2409;DHT22;8463;48.094;7.970;2023-11-22T16:27:15;4.00;1.00
2409;DHT22;8463;48.094;7.970;2023-11-22T16:29:40;4.00;1.00
2409;DHT22;8463;48.094;7.970;2023-11-22T16:32:06;3.90;1.00
2409;DHT22;8463;48.094;7.970;2023-11-22T16:34:32;4.00;1.00
2409;DHT22;8463;48.094;7.970;2023-11-22T16:36:58;4.00;1.00
2409;DHT22;8463;48.094;7.970;2023-11-22T16:39:24;4.00;1.00
2409;DHT22;8463;48.094;7.970;2023-11-22T16:41:49;4.00;1.00
2409;DHT22;8463;48.094;7.970;2023-11-22T16:44:15;4.10;1.00
2409;DHT22;8463;48.094;7.970;2023-11-22T16:46:44;4.10;1.00
2409;DHT22;8463;48.094;7.970;2023-11-22T16:49:11;4.10;1.00
2409;DHT22;8463;48.094;7.970;2023-11-22T16:51:39;4.20;1.00
2409;DHT22;8463;48.094;7.970;2023-11-22T16:54:05;4.00;1.00
2409;DHT22;8463;48.094;7.970;2023-11-22T16:56:35;4.00;1.00
2409;DHT22;8463;48.094;7.970;2023-11-22T16:59:00;4.10;1.00
2409;DHT22;8463;48.094;7.970;2023-11-22T17:01:27;4.30;1.00
2409;DHT22;8463;48.094;7.970;2023-11-22T17:03:53;4.30;1.00
2409;DHT22;8463;48.094;7.970;2023-11-22T17:06:18;4.40;1.00
2409;DHT22;8463;48.094;7.970;2023-11-22T17:08:44;4.40;1.00
2409;DHT22;8463;48.094;7.970;2023-11-22T17:11:09;4.60;1.00
2409;DHT22;8463;48.094;7.970;2023-11-22T17:13:35;4.60;1.00
2409;DHT22;8463;48.094;7.970;2023-11-22T17:16:02;4.70;1.00
2409;DHT22;8463;48.094;7.970;2023-11-22T17:18:28;4.70;1.00
2409;DHT22;8463;48.094;7.970;2023-11-22T17:20:53;4.70;1.00
2409;DHT22;8463;48.094;7.970;2023-11-22T17:23:22;4.80;1.00
2409;DHT22;8463;48.094;7.970;2023-11-22T17:25:47;4.60;1.00
2409;DHT22;8463;48.094;7.970;2023-11-22T17:28:13;4.60;1.00
2409;DHT22;8463;48.094;7.970;2023-11-22T17:30:39;4.60;1.00
2409;DHT22;8463;48.094;7.970;2023-11-22T17:33:04;4.50;1.00
2409;DHT22;8463;48.094;7.970;2023-11-22T17:35:30;4.50;1.00
2409;DHT22;8463;48.094;7.970;2023-11-22T17:37:56;4.60;1.00
2409;DHT22;8463;48.094;7.970;2023-11-22T17:40:24;4.60;1.00
2409;DHT22;8463;48.094;7.970;2023-11-22T17:42:49;4.60;1.00
2409;DHT22;8463;48.094;7.970;2023-11-22T17:45:15;4.60;1.00